sensor_id;sensor_type;location;lat;lon;timestamp;P1;durP1;ratioP1;P2;durP2;ratioP2
41219;SDS011;26951;47.338;9.196;2023-02-28T00:02:15;11.77;;;7.75;;
41219;SDS011;26951;47.338;9.196;2023-02-28T00:05:01;10.07;;;7.70;;
41219;SDS011;26951;47.338;9.196;2023-02-28T00:07:47;13.02;;;9.02;;
41219;SDS011;26951;47.338;9.196;2023-02-28T00:10:32;14.35;;;9.27;;
41219;SDS011;26951;47.338;9.196;2023-02-28T00:13:16;12.00;;;8.13;;
41219;SDS011;26951;47.338;9.196;2023-02-28T00:16:07;10.98;;;8.18;;
41219;SDS011;26951;47.338;9.196;2023-02-28T00:18:54;10.23;;;8.75;;
41219;SDS011;26951;47.338;9.196;2023-02-28T00:21:38;11.57;;;9.27;;
41219;SDS011;26951;47.338;9.196;2023-02-28T00:24:24;11.10;;;8.00;;
41219;SDS011;26951;47.338;9.196;2023-02-28T00:27:08;11.45;;;8.77;;
41219;SDS011;26951;47.338;9.196;2023-02-28T00:29:53;12.32;;;8.35;;
41219;SDS011;26951;47.338;9.196;2023-02-28T00:32:37;11.85;;;8.27;;
41219;SDS011;26951;47.338;9.196;2023-02-28T00:35:22;12.65;;;9.38;;
41219;SDS011;26951;47.338;9.196;2023-02-28T00:38:06;10.85;;;7.95;;
41219;SDS011;26951;47.338;9.196;2023-02-28T00:40:50;10.70;;;8.35;;
41219;SDS011;26951;47.338;9.196;2023-02-28T00:43:35;10.70;;;8.70;;
41219;SDS011;26951;47.338;9.196;2023-02-28T00:46:20;10.55;;;8.38;;
41219;SDS011;26951;47.338;9.196;2023-02-28T00:49:05;12.52;;;8.60;;
41219;SDS011;26951;47.338;9.196;2023-02-28T00:51:49;12.73;;;8.68;;
41219;SDS011;26951;47.338;9.196;2023-02-28T00:54:33;11.02;;;8.05;;
41219;SDS011;26951;47.338;9.196;2023-02-28T00:57:17;10.80;;;8.60;;
41219;SDS011;26951;47.338;9.196;2023-02-28T01:00:02;11.27;;;8.85;;
41219;SDS011;26951;47.338;9.196;2023-02-28T01:02:47;10.00;;;7.93;;
41219;SDS011;26951;47.338;9.196;2023-02-28T01:05:31;10.13;;;7.93;;
41219;SDS011;26951;47.338;9.196;2023-02-28T01:08:15;12.10;;;8.63;;
41219;SDS011;26951;47.338;9.196;2023-02-28T01:11:06;10.70;;;9.20;;
41219;SDS011;26951;47.338;9.196;2023-02-28T01:13:55;11.30;;;8.70;;
41219;SDS011;26951;47.338;9.196;2023-02-28T01:16:39;15.15;;;9.93;;
41219;SDS011;26951;47.338;9.196;2023-02-28T01:19:23;11.45;;;8.82;;
41219;SDS011;26951;47.338;9.196;2023-02-28T01:22:07;12.90;;;8.65;;
41219;SDS011;26951;47.338;9.196;2023-02-28T01:24:51;11.70;;;8.07;;
41219;SDS011;26951;47.338;9.196;2023-02-28T01:27:36;12.05;;;9.07;;
41219;SDS011;26951;47.338;9.196;2023-02-28T01:30:20;12.98;;;9.18;;
41219;SDS011;26951;47.338;9.196;2023-02-28T01:33:04;11.30;;;8.30;;
41219;SDS011;26951;47.338;9.196;2023-02-28T01:35:48;14.35;;;9.45;;
41219;SDS011;26951;47.338;9.196;2023-02-28T01:38:33;11.40;;;9.05;;
41219;SDS011;26951;47.338;9.196;2023-02-28T01:41:22;13.68;;;7.75;;
41219;SDS011;26951;47.338;9.196;2023-02-28T01:47:34;11.60;;;8.88;;
41219;SDS011;26951;47.338;9.196;2023-02-28T01:50:23;12.20;;;9.25;;
41219;SDS011;26951;47.338;9.196;2023-02-28T01:53:10;12.40;;;9.25;;
41219;SDS011;26951;47.338;9.196;2023-02-28T01:55:59;12.55;;;9.45;;
41219;SDS011;26951;47.338;9.196;2023-02-28T01:58:44;10.90;;;8.18;;
41219;SDS011;26951;47.338;9.196;2023-02-28T02:04:51;12.60;;;9.70;;
41219;SDS011;26951;47.338;9.196;2023-02-28T02:07:46;11.23;;;8.55;;
41219;SDS011;26951;47.338;9.196;2023-02-28T02:10:35;12.63;;;8.50;;
41219;SDS011;26951;47.338;9.196;2023-02-28T02:13:26;11.20;;;8.23;;
41219;SDS011;26951;47.338;9.196;2023-02-28T02:25:53;12.40;;;9.00;;
41219;SDS011;26951;47.338;9.196;2023-02-28T02:32:22;12.48;;;8.77;;
41219;SDS011;26951;47.338;9.196;2023-02-28T02:35:24;12.35;;;8.80;;
41219;SDS011;26951;47.338;9.196;2023-02-28T02:41:35;14.07;;;9.80;;
41219;SDS011;26951;47.338;9.196;2023-02-28T02:47:30;11.32;;;7.93;;
41219;SDS011;26951;47.338;9.196;2023-02-28T02:50:26;14.32;;;9.65;;
41219;SDS011;26951;47.338;9.196;2023-02-28T02:53:17;13.02;;;8.70;;
41219;SDS011;26951;47.338;9.196;2023-02-28T02:56:05;12.52;;;9.27;;
41219;SDS011;26951;47.338;9.196;2023-02-28T02:58:51;13.25;;;9.25;;
41219;SDS011;26951;47.338;9.196;2023-02-28T03:01:38;13.95;;;8.73;;
41219;SDS011;26951;47.338;9.196;2023-02-28T03:04:25;15.30;;;9.35;;
41219;SDS011;26951;47.338;9.196;2023-02-28T03:07:14;11.52;;;8.65;;
41219;SDS011;26951;47.338;9.196;2023-02-28T03:09:58;12.45;;;8.73;;
41219;SDS011;26951;47.338;9.196;2023-02-28T03:12:46;13.65;;;9.07;;
41219;SDS011;26951;47.338;9.196;2023-02-28T03:15:40;12.88;;;8.82;;
41219;SDS011;26951;47.338;9.196;2023-02-28T03:18:42;15.93;;;8.88;;
41219;SDS011;26951;47.338;9.196;2023-02-28T03:24:49;16.60;;;9.63;;
41219;SDS011;26951;47.338;9.196;2023-02-28T03:30:41;11.63;;;8.95;;
41219;SDS011;26951;47.338;9.196;2023-02-28T03:33:46;12.20;;;8.73;;
41219;SDS011;26951;47.338;9.196;2023-02-28T03:36:39;14.38;;;9.05;;
41219;SDS011;26951;47.338;9.196;2023-02-28T03:39:39;13.98;;;8.80;;
41219;SDS011;26951;47.338;9.196;2023-02-28T03:42:31;15.75;;;9.75;;
41219;SDS011;26951;47.338;9.196;2023-02-28T03:45:21;13.65;;;9.77;;
41219;SDS011;26951;47.338;9.196;2023-02-28T03:48:23;10.43;;;8.23;;
41219;SDS011;26951;47.338;9.196;2023-02-28T03:51:17;15.35;;;10.02;;
41219;SDS011;26951;47.338;9.196;2023-02-28T03:54:05;12.60;;;8.45;;
41219;SDS011;26951;47.338;9.196;2023-02-28T03:57:07;14.30;;;9.52;;
41219;SDS011;26951;47.338;9.196;2023-02-28T03:59:56;12.48;;;7.95;;
41219;SDS011;26951;47.338;9.196;2023-02-28T04:02:55;13.02;;;9.40;;
41219;SDS011;26951;47.338;9.196;2023-02-28T04:05:53;14.38;;;9.98;;
41219;SDS011;26951;47.338;9.196;2023-02-28T04:08:39;13.43;;;9.00;;
41219;SDS011;26951;47.338;9.196;2023-02-28T04:11:25;11.63;;;8.48;;
41219;SDS011;26951;47.338;9.196;2023-02-28T04:14:22;14.50;;;9.20;;
41219;SDS011;26951;47.338;9.196;2023-02-28T04:17:06;14.27;;;9.65;;
41219;SDS011;26951;47.338;9.196;2023-02-28T04:19:50;16.00;;;9.70;;
41219;SDS011;26951;47.338;9.196;2023-02-28T04:22:35;14.00;;;9.38;;
41219;SDS011;26951;47.338;9.196;2023-02-28T04:25:19;11.85;;;9.40;;
41219;SDS011;26951;47.338;9.196;2023-02-28T04:28:04;12.48;;;8.77;;
41219;SDS011;26951;47.338;9.196;2023-02-28T04:30:53;12.00;;;9.18;;
41219;SDS011;26951;47.338;9.196;2023-02-28T04:33:38;12.20;;;8.88;;
41219;SDS011;26951;47.338;9.196;2023-02-28T04:36:23;15.23;;;9.43;;
41219;SDS011;26951;47.338;9.196;2023-02-28T04:39:07;14.35;;;9.10;;
41219;SDS011;26951;47.338;9.196;2023-02-28T04:41:53;11.43;;;8.80;;
41219;SDS011;26951;47.338;9.196;2023-02-28T04:44:37;12.73;;;9.05;;
41219;SDS011;26951;47.338;9.196;2023-02-28T04:47:21;11.40;;;8.80;;
41219;SDS011;26951;47.338;9.196;2023-02-28T04:50:06;13.70;;;9.48;;
41219;SDS011;26951;47.338;9.196;2023-02-28T04:52:51;13.07;;;9.32;;
41219;SDS011;26951;47.338;9.196;2023-02-28T04:55:35;15.13;;;9.80;;
41219;SDS011;26951;47.338;9.196;2023-02-28T04:58:19;12.95;;;10.25;;
41219;SDS011;26951;47.338;9.196;2023-02-28T05:01:07;16.50;;;10.95;;
41219;SDS011;26951;47.338;9.196;2023-02-28T05:04:04;13.70;;;9.85;;
41219;SDS011;26951;47.338;9.196;2023-02-28T05:06:48;12.30;;;9.18;;
41219;SDS011;26951;47.338;9.196;2023-02-28T05:09:32;15.85;;;10.73;;
41219;SDS011;26951;47.338;9.196;2023-02-28T05:12:16;11.90;;;8.77;;
41219;SDS011;26951;47.338;9.196;2023-02-28T05:15:00;12.88;;;8.57;;
41219;SDS011;26951;47.338;9.196;2023-02-28T05:17:45;14.07;;;9.57;;
41219;SDS011;26951;47.338;9.196;2023-02-28T05:20:30;11.95;;;8.73;;
41219;SDS011;26951;47.338;9.196;2023-02-28T05:23:14;15.00;;;9.75;;
41219;SDS011;26951;47.338;9.196;2023-02-28T05:26:00;15.15;;;10.60;;
41219;SDS011;26951;47.338;9.196;2023-02-28T05:28:44;13.30;;;9.52;;
41219;SDS011;26951;47.338;9.196;2023-02-28T05:31:28;15.77;;;10.07;;
41219;SDS011;26951;47.338;9.196;2023-02-28T05:34:12;12.35;;;9.35;;
41219;SDS011;26951;47.338;9.196;2023-02-28T05:36:59;12.68;;;9.02;;
41219;SDS011;26951;47.338;9.196;2023-02-28T05:39:43;14.63;;;10.25;;
41219;SDS011;26951;47.338;9.196;2023-02-28T05:42:27;17.52;;;9.98;;
41219;SDS011;26951;47.338;9.196;2023-02-28T05:45:11;11.88;;;9.10;;
41219;SDS011;26951;47.338;9.196;2023-02-28T05:47:56;13.95;;;9.82;;
41219;SDS011;26951;47.338;9.196;2023-02-28T05:50:40;14.25;;;10.50;;
41219;SDS011;26951;47.338;9.196;2023-02-28T05:53:26;15.65;;;10.85;;
41219;SDS011;26951;47.338;9.196;2023-02-28T05:56:10;10.63;;;8.25;;
41219;SDS011;26951;47.338;9.196;2023-02-28T05:58:54;15.73;;;9.98;;
41219;SDS011;26951;47.338;9.196;2023-02-28T06:01:40;16.23;;;9.70;;
41219;SDS011;26951;47.338;9.196;2023-02-28T06:04:31;12.90;;;8.25;;
41219;SDS011;26951;47.338;9.196;2023-02-28T06:07:16;14.57;;;8.70;;
41219;SDS011;26951;47.338;9.196;2023-02-28T06:10:01;17.92;;;9.27;;
41219;SDS011;26951;47.338;9.196;2023-02-28T06:12:45;14.77;;;9.23;;
41219;SDS011;26951;47.338;9.196;2023-02-28T06:15:29;14.02;;;10.50;;
41219;SDS011;26951;47.338;9.196;2023-02-28T06:18:14;16.17;;;10.38;;
41219;SDS011;26951;47.338;9.196;2023-02-28T06:20:58;14.63;;;9.95;;
41219;SDS011;26951;47.338;9.196;2023-02-28T06:23:42;12.48;;;9.02;;
41219;SDS011;26951;47.338;9.196;2023-02-28T06:26:27;15.73;;;10.43;;
41219;SDS011;26951;47.338;9.196;2023-02-28T06:29:11;13.57;;;8.77;;
41219;SDS011;26951;47.338;9.196;2023-02-28T06:31:55;14.77;;;9.20;;
41219;SDS011;26951;47.338;9.196;2023-02-28T06:34:39;15.45;;;8.80;;
41219;SDS011;26951;47.338;9.196;2023-02-28T06:37:24;14.00;;;8.65;;
41219;SDS011;26951;47.338;9.196;2023-02-28T06:40:10;13.25;;;8.70;;
41219;SDS011;26951;47.338;9.196;2023-02-28T06:42:56;14.60;;;9.23;;
41219;SDS011;26951;47.338;9.196;2023-02-28T06:45:43;13.55;;;8.60;;
41219;SDS011;26951;47.338;9.196;2023-02-28T06:48:28;15.63;;;8.40;;
41219;SDS011;26951;47.338;9.196;2023-02-28T06:51:13;17.23;;;10.50;;
41219;SDS011;26951;47.338;9.196;2023-02-28T06:54:00;14.98;;;8.75;;
41219;SDS011;26951;47.338;9.196;2023-02-28T06:56:45;12.57;;;7.93;;
41219;SDS011;26951;47.338;9.196;2023-02-28T06:59:30;14.20;;;8.65;;
41219;SDS011;26951;47.338;9.196;2023-02-28T07:02:15;13.35;;;8.35;;
41219;SDS011;26951;47.338;9.196;2023-02-28T07:04:59;12.93;;;9.07;;
41219;SDS011;26951;47.338;9.196;2023-02-28T07:07:43;15.23;;;9.88;;
41219;SDS011;26951;47.338;9.196;2023-02-28T07:10:30;13.98;;;8.73;;
41219;SDS011;26951;47.338;9.196;2023-02-28T07:13:14;13.30;;;9.20;;
41219;SDS011;26951;47.338;9.196;2023-02-28T07:15:59;15.75;;;9.57;;
41219;SDS011;26951;47.338;9.196;2023-02-28T07:18:46;14.32;;;8.60;;
41219;SDS011;26951;47.338;9.196;2023-02-28T07:21:30;17.85;;;9.57;;
41219;SDS011;26951;47.338;9.196;2023-02-28T07:24:14;14.18;;;9.75;;
41219;SDS011;26951;47.338;9.196;2023-02-28T07:27:01;14.52;;;9.25;;
41219;SDS011;26951;47.338;9.196;2023-02-28T07:29:45;16.00;;;8.68;;
41219;SDS011;26951;47.338;9.196;2023-02-28T07:32:30;13.68;;;9.73;;
41219;SDS011;26951;47.338;9.196;2023-02-28T07:35:14;15.77;;;9.82;;
41219;SDS011;26951;47.338;9.196;2023-02-28T07:38:02;14.25;;;9.25;;
41219;SDS011;26951;47.338;9.196;2023-02-28T07:40:47;14.52;;;9.85;;
41219;SDS011;26951;47.338;9.196;2023-02-28T07:43:32;13.15;;;8.60;;
41219;SDS011;26951;47.338;9.196;2023-02-28T07:46:16;10.20;;;7.18;;
41219;SDS011;26951;47.338;9.196;2023-02-28T07:49:00;14.18;;;8.35;;
41219;SDS011;26951;47.338;9.196;2023-02-28T07:51:46;13.48;;;7.72;;
41219;SDS011;26951;47.338;9.196;2023-02-28T07:54:31;13.70;;;8.40;;
41219;SDS011;26951;47.338;9.196;2023-02-28T07:57:16;13.13;;;8.90;;
41219;SDS011;26951;47.338;9.196;2023-02-28T08:00:01;15.32;;;10.13;;
41219;SDS011;26951;47.338;9.196;2023-02-28T08:02:47;14.35;;;9.38;;
41219;SDS011;26951;47.338;9.196;2023-02-28T08:05:31;13.50;;;9.20;;
41219;SDS011;26951;47.338;9.196;2023-02-28T08:08:16;13.07;;;8.45;;
41219;SDS011;26951;47.338;9.196;2023-02-28T08:11:01;11.90;;;8.63;;
41219;SDS011;26951;47.338;9.196;2023-02-28T08:13:46;15.60;;;10.68;;
41219;SDS011;26951;47.338;9.196;2023-02-28T08:16:30;17.25;;;10.00;;
41219;SDS011;26951;47.338;9.196;2023-02-28T08:19:14;14.13;;;9.70;;
41219;SDS011;26951;47.338;9.196;2023-02-28T08:21:58;15.43;;;9.05;;
41219;SDS011;26951;47.338;9.196;2023-02-28T08:24:42;14.77;;;9.70;;
41219;SDS011;26951;47.338;9.196;2023-02-28T08:27:27;13.73;;;9.05;;
41219;SDS011;26951;47.338;9.196;2023-02-28T08:30:12;13.82;;;9.60;;
41219;SDS011;26951;47.338;9.196;2023-02-28T08:32:57;14.88;;;10.13;;
41219;SDS011;26951;47.338;9.196;2023-02-28T08:35:41;13.80;;;9.43;;
41219;SDS011;26951;47.338;9.196;2023-02-28T08:38:25;14.77;;;10.20;;
41219;SDS011;26951;47.338;9.196;2023-02-28T08:41:10;14.63;;;9.95;;
41219;SDS011;26951;47.338;9.196;2023-02-28T08:43:55;14.88;;;9.18;;
41219;SDS011;26951;47.338;9.196;2023-02-28T08:46:40;15.38;;;9.55;;
41219;SDS011;26951;47.338;9.196;2023-02-28T08:49:24;13.13;;;8.50;;
41219;SDS011;26951;47.338;9.196;2023-02-28T08:52:08;15.18;;;9.93;;
41219;SDS011;26951;47.338;9.196;2023-02-28T08:54:52;14.73;;;10.65;;
41219;SDS011;26951;47.338;9.196;2023-02-28T08:57:36;11.35;;;8.45;;
41219;SDS011;26951;47.338;9.196;2023-02-28T09:00:21;15.07;;;9.68;;
41219;SDS011;26951;47.338;9.196;2023-02-28T09:03:06;14.88;;;9.07;;
41219;SDS011;26951;47.338;9.196;2023-02-28T09:08:41;14.85;;;10.27;;
41219;SDS011;26951;47.338;9.196;2023-02-28T09:11:27;15.50;;;10.20;;
41219;SDS011;26951;47.338;9.196;2023-02-28T09:14:11;12.90;;;8.48;;
41219;SDS011;26951;47.338;9.196;2023-02-28T09:16:55;14.48;;;9.77;;
41219;SDS011;26951;47.338;9.196;2023-02-28T09:19:40;13.95;;;9.38;;
41219;SDS011;26951;47.338;9.196;2023-02-28T09:22:24;12.60;;;9.57;;
41219;SDS011;26951;47.338;9.196;2023-02-28T09:25:08;14.80;;;9.85;;
41219;SDS011;26951;47.338;9.196;2023-02-28T09:27:52;12.75;;;9.50;;
41219;SDS011;26951;47.338;9.196;2023-02-28T09:30:37;13.85;;;9.43;;
41219;SDS011;26951;47.338;9.196;2023-02-28T09:33:21;16.10;;;10.38;;
41219;SDS011;26951;47.338;9.196;2023-02-28T09:36:06;13.88;;;9.77;;
41219;SDS011;26951;47.338;9.196;2023-02-28T09:38:51;13.55;;;9.82;;
41219;SDS011;26951;47.338;9.196;2023-02-28T09:41:37;13.95;;;9.63;;
41219;SDS011;26951;47.338;9.196;2023-02-28T09:44:37;14.98;;;9.93;;
41219;SDS011;26951;47.338;9.196;2023-02-28T09:50:19;16.75;;;10.25;;
41219;SDS011;26951;47.338;9.196;2023-02-28T09:53:11;15.35;;;10.15;;
41219;SDS011;26951;47.338;9.196;2023-02-28T09:56:14;12.48;;;9.00;;
41219;SDS011;26951;47.338;9.196;2023-02-28T09:59:13;14.70;;;10.13;;
41219;SDS011;26951;47.338;9.196;2023-02-28T10:05:27;14.63;;;10.48;;
41219;SDS011;26951;47.338;9.196;2023-02-28T10:08:19;14.50;;;9.70;;
41219;SDS011;26951;47.338;9.196;2023-02-28T10:11:12;13.70;;;9.75;;
41219;SDS011;26951;47.338;9.196;2023-02-28T10:14:01;17.48;;;11.45;;
41219;SDS011;26951;47.338;9.196;2023-02-28T10:16:50;16.40;;;10.38;;
41219;SDS011;26951;47.338;9.196;2023-02-28T10:19:40;16.17;;;10.90;;
41219;SDS011;26951;47.338;9.196;2023-02-28T10:25:24;13.63;;;10.13;;
41219;SDS011;26951;47.338;9.196;2023-02-28T10:30:58;20.67;;;11.90;;
41219;SDS011;26951;47.338;9.196;2023-02-28T10:33:42;14.85;;;10.88;;
41219;SDS011;26951;47.338;9.196;2023-02-28T10:36:27;14.25;;;9.95;;
41219;SDS011;26951;47.338;9.196;2023-02-28T10:42:22;15.60;;;10.25;;
41219;SDS011;26951;47.338;9.196;2023-02-28T10:45:13;14.30;;;9.68;;
41219;SDS011;26951;47.338;9.196;2023-02-28T10:48:00;16.77;;;11.20;;
41219;SDS011;26951;47.338;9.196;2023-02-28T10:50:57;15.82;;;10.15;;
41219;SDS011;26951;47.338;9.196;2023-02-28T10:56:27;13.85;;;10.20;;
41219;SDS011;26951;47.338;9.196;2023-02-28T11:01:58;17.50;;;10.57;;
41219;SDS011;26951;47.338;9.196;2023-02-28T11:04:42;15.75;;;10.27;;
41219;SDS011;26951;47.338;9.196;2023-02-28T11:07:26;15.68;;;10.20;;
41219;SDS011;26951;47.338;9.196;2023-02-28T11:10:16;15.48;;;11.10;;
41219;SDS011;26951;47.338;9.196;2023-02-28T11:13:04;17.60;;;11.20;;
41219;SDS011;26951;47.338;9.196;2023-02-28T11:15:51;14.88;;;10.10;;
41219;SDS011;26951;47.338;9.196;2023-02-28T11:21:30;18.05;;;11.02;;
41219;SDS011;26951;47.338;9.196;2023-02-28T11:24:28;16.48;;;10.35;;
41219;SDS011;26951;47.338;9.196;2023-02-28T11:27:39;15.07;;;10.13;;
41219;SDS011;26951;47.338;9.196;2023-02-28T11:30:39;15.27;;;10.15;;
41219;SDS011;26951;47.338;9.196;2023-02-28T11:36:18;14.77;;;10.07;;
41219;SDS011;26951;47.338;9.196;2023-02-28T11:39:08;16.48;;;10.90;;
41219;SDS011;26951;47.338;9.196;2023-02-28T11:42:07;18.85;;;11.30;;
41219;SDS011;26951;47.338;9.196;2023-02-28T11:45:14;15.43;;;11.02;;
41219;SDS011;26951;47.338;9.196;2023-02-28T11:51:10;16.27;;;10.63;;
41219;SDS011;26951;47.338;9.196;2023-02-28T11:57:12;17.27;;;11.27;;
41219;SDS011;26951;47.338;9.196;2023-02-28T12:11:38;15.77;;;9.90;;
41219;SDS011;26951;47.338;9.196;2023-02-28T12:14:49;16.08;;;11.23;;
41219;SDS011;26951;47.338;9.196;2023-02-28T12:18:15;14.13;;;10.30;;
41219;SDS011;26951;47.338;9.196;2023-02-28T12:26:49;15.75;;;9.95;;
41219;SDS011;26951;47.338;9.196;2023-02-28T12:29:39;16.63;;;10.75;;
41219;SDS011;26951;47.338;9.196;2023-02-28T12:32:39;16.48;;;11.05;;
41219;SDS011;26951;47.338;9.196;2023-02-28T12:35:37;18.23;;;10.60;;
41219;SDS011;26951;47.338;9.196;2023-02-28T12:38:36;17.05;;;10.85;;
41219;SDS011;26951;47.338;9.196;2023-02-28T12:41:41;15.52;;;10.55;;
41219;SDS011;26951;47.338;9.196;2023-02-28T12:44:31;13.88;;;10.20;;
41219;SDS011;26951;47.338;9.196;2023-02-28T12:47:32;16.38;;;11.02;;
41219;SDS011;26951;47.338;9.196;2023-02-28T12:50:17;17.77;;;12.43;;
41219;SDS011;26951;47.338;9.196;2023-02-28T12:59:13;15.75;;;11.07;;
41219;SDS011;26951;47.338;9.196;2023-02-28T13:05:19;17.30;;;11.20;;
41219;SDS011;26951;47.338;9.196;2023-02-28T13:08:21;13.85;;;10.48;;
41219;SDS011;26951;47.338;9.196;2023-02-28T13:11:30;15.35;;;10.52;;
41219;SDS011;26951;47.338;9.196;2023-02-28T13:14:36;16.45;;;11.18;;
41219;SDS011;26951;47.338;9.196;2023-02-28T13:17:22;15.75;;;10.48;;
41219;SDS011;26951;47.338;9.196;2023-02-28T13:20:20;14.80;;;10.88;;
41219;SDS011;26951;47.338;9.196;2023-02-28T13:23:35;15.35;;;10.27;;
41219;SDS011;26951;47.338;9.196;2023-02-28T13:38:08;14.13;;;10.00;;
41219;SDS011;26951;47.338;9.196;2023-02-28T13:41:21;15.77;;;10.98;;
41219;SDS011;26951;47.338;9.196;2023-02-28T13:44:20;15.25;;;10.90;;
41219;SDS011;26951;47.338;9.196;2023-02-28T13:47:18;14.68;;;11.27;;
41219;SDS011;26951;47.338;9.196;2023-02-28T13:56:27;15.73;;;11.25;;
41219;SDS011;26951;47.338;9.196;2023-02-28T13:59:26;14.52;;;11.05;;
41219;SDS011;26951;47.338;9.196;2023-02-28T14:02:29;18.55;;;11.82;;
41219;SDS011;26951;47.338;9.196;2023-02-28T14:05:22;16.02;;;11.57;;
41219;SDS011;26951;47.338;9.196;2023-02-28T14:08:14;14.63;;;9.85;;
41219;SDS011;26951;47.338;9.196;2023-02-28T14:11:05;15.60;;;11.98;;
41219;SDS011;26951;47.338;9.196;2023-02-28T14:13:53;14.80;;;10.27;;
41219;SDS011;26951;47.338;9.196;2023-02-28T14:16:54;16.08;;;11.43;;
41219;SDS011;26951;47.338;9.196;2023-02-28T14:19:43;15.35;;;10.60;;
41219;SDS011;26951;47.338;9.196;2023-02-28T14:25:33;15.95;;;11.55;;
41219;SDS011;26951;47.338;9.196;2023-02-28T14:31:48;16.08;;;11.75;;
41219;SDS011;26951;47.338;9.196;2023-02-28T14:34:43;17.13;;;11.90;;
41219;SDS011;26951;47.338;9.196;2023-02-28T14:37:37;16.92;;;11.05;;
41219;SDS011;26951;47.338;9.196;2023-02-28T14:40:30;15.63;;;11.68;;
41219;SDS011;26951;47.338;9.196;2023-02-28T14:43:24;14.48;;;10.80;;
41219;SDS011;26951;47.338;9.196;2023-02-28T14:46:10;16.27;;;10.43;;
41219;SDS011;26951;47.338;9.196;2023-02-28T14:48:57;17.05;;;11.52;;
41219;SDS011;26951;47.338;9.196;2023-02-28T14:51:41;14.80;;;10.85;;
41219;SDS011;26951;47.338;9.196;2023-02-28T14:54:26;16.90;;;12.25;;
41219;SDS011;26951;47.338;9.196;2023-02-28T15:00:13;17.20;;;12.88;;
41219;SDS011;26951;47.338;9.196;2023-02-28T15:03:18;14.57;;;10.18;;
41219;SDS011;26951;47.338;9.196;2023-02-28T15:06:15;14.35;;;10.32;;
41219;SDS011;26951;47.338;9.196;2023-02-28T15:09:08;16.10;;;10.98;;
41219;SDS011;26951;47.338;9.196;2023-02-28T15:11:57;15.60;;;11.13;;
41219;SDS011;26951;47.338;9.196;2023-02-28T15:14:42;15.32;;;11.02;;
41219;SDS011;26951;47.338;9.196;2023-02-28T15:17:27;17.13;;;10.73;;
41219;SDS011;26951;47.338;9.196;2023-02-28T15:20:12;15.93;;;11.30;;
41219;SDS011;26951;47.338;9.196;2023-02-28T15:22:58;14.95;;;11.00;;
41219;SDS011;26951;47.338;9.196;2023-02-28T15:25:43;16.55;;;11.13;;
41219;SDS011;26951;47.338;9.196;2023-02-28T15:28:28;17.33;;;12.25;;
41219;SDS011;26951;47.338;9.196;2023-02-28T15:31:26;18.10;;;12.13;;
41219;SDS011;26951;47.338;9.196;2023-02-28T15:34:20;17.88;;;11.95;;
41219;SDS011;26951;47.338;9.196;2023-02-28T15:40:15;20.45;;;13.32;;
41219;SDS011;26951;47.338;9.196;2023-02-28T15:43:16;19.45;;;12.55;;
41219;SDS011;26951;47.338;9.196;2023-02-28T15:46:10;18.33;;;12.63;;
41219;SDS011;26951;47.338;9.196;2023-02-28T15:48:56;17.90;;;13.23;;
41219;SDS011;26951;47.338;9.196;2023-02-28T15:51:41;19.02;;;12.18;;
41219;SDS011;26951;47.338;9.196;2023-02-28T15:54:30;18.48;;;12.52;;
41219;SDS011;26951;47.338;9.196;2023-02-28T15:57:20;19.88;;;12.60;;
41219;SDS011;26951;47.338;9.196;2023-02-28T16:00:10;20.95;;;12.07;;
41219;SDS011;26951;47.338;9.196;2023-02-28T16:02:57;17.40;;;12.05;;
41219;SDS011;26951;47.338;9.196;2023-02-28T16:05:42;17.90;;;13.95;;
41219;SDS011;26951;47.338;9.196;2023-02-28T16:08:26;18.00;;;12.13;;
41219;SDS011;26951;47.338;9.196;2023-02-28T16:11:10;19.15;;;12.65;;
41219;SDS011;26951;47.338;9.196;2023-02-28T16:13:54;20.25;;;13.73;;
41219;SDS011;26951;47.338;9.196;2023-02-28T16:16:41;20.30;;;13.77;;
41219;SDS011;26951;47.338;9.196;2023-02-28T16:19:28;17.80;;;12.63;;
41219;SDS011;26951;47.338;9.196;2023-02-28T16:22:12;19.60;;;12.60;;
41219;SDS011;26951;47.338;9.196;2023-02-28T16:24:56;21.08;;;13.43;;
41219;SDS011;26951;47.338;9.196;2023-02-28T16:27:40;17.45;;;12.52;;
41219;SDS011;26951;47.338;9.196;2023-02-28T16:33:11;18.15;;;11.88;;
41219;SDS011;26951;47.338;9.196;2023-02-28T16:35:55;20.33;;;12.95;;
41219;SDS011;26951;47.338;9.196;2023-02-28T16:38:40;20.30;;;13.07;;
41219;SDS011;26951;47.338;9.196;2023-02-28T16:41:25;18.45;;;12.68;;
41219;SDS011;26951;47.338;9.196;2023-02-28T16:44:12;21.25;;;14.15;;
41219;SDS011;26951;47.338;9.196;2023-02-28T16:47:17;21.00;;;14.50;;
41219;SDS011;26951;47.338;9.196;2023-02-28T16:50:04;23.02;;;12.88;;
41219;SDS011;26951;47.338;9.196;2023-02-28T16:52:59;20.23;;;13.32;;
41219;SDS011;26951;47.338;9.196;2023-02-28T16:55:43;17.85;;;12.23;;
41219;SDS011;26951;47.338;9.196;2023-02-28T16:58:27;20.63;;;14.07;;
41219;SDS011;26951;47.338;9.196;2023-02-28T17:01:12;20.63;;;13.20;;
41219;SDS011;26951;47.338;9.196;2023-02-28T17:03:57;19.83;;;12.85;;
41219;SDS011;26951;47.338;9.196;2023-02-28T17:06:41;18.20;;;12.90;;
41219;SDS011;26951;47.338;9.196;2023-02-28T17:09:25;18.80;;;12.93;;
41219;SDS011;26951;47.338;9.196;2023-02-28T17:12:10;18.63;;;12.52;;
41219;SDS011;26951;47.338;9.196;2023-02-28T17:14:58;19.73;;;13.45;;
41219;SDS011;26951;47.338;9.196;2023-02-28T17:17:42;20.95;;;13.85;;
41219;SDS011;26951;47.338;9.196;2023-02-28T17:20:27;21.48;;;13.45;;
41219;SDS011;26951;47.338;9.196;2023-02-28T17:23:11;21.10;;;13.48;;
41219;SDS011;26951;47.338;9.196;2023-02-28T17:25:55;19.85;;;14.02;;
41219;SDS011;26951;47.338;9.196;2023-02-28T17:28:39;20.83;;;13.38;;
41219;SDS011;26951;47.338;9.196;2023-02-28T17:31:24;21.13;;;13.77;;
41219;SDS011;26951;47.338;9.196;2023-02-28T17:34:09;24.55;;;14.32;;
41219;SDS011;26951;47.338;9.196;2023-02-28T17:36:54;21.55;;;14.57;;
41219;SDS011;26951;47.338;9.196;2023-02-28T17:39:38;23.05;;;14.27;;
41219;SDS011;26951;47.338;9.196;2023-02-28T17:42:22;20.90;;;13.38;;
41219;SDS011;26951;47.338;9.196;2023-02-28T17:45:06;24.20;;;15.30;;
41219;SDS011;26951;47.338;9.196;2023-02-28T17:47:51;22.48;;;15.27;;
41219;SDS011;26951;47.338;9.196;2023-02-28T17:50:35;22.38;;;15.07;;
41219;SDS011;26951;47.338;9.196;2023-02-28T17:53:19;24.33;;;15.35;;
41219;SDS011;26951;47.338;9.196;2023-02-28T17:56:13;23.15;;;15.05;;
41219;SDS011;26951;47.338;9.196;2023-02-28T17:59:09;22.90;;;14.00;;
41219;SDS011;26951;47.338;9.196;2023-02-28T18:01:54;21.33;;;14.18;;
41219;SDS011;26951;47.338;9.196;2023-02-28T18:04:38;23.42;;;14.38;;
41219;SDS011;26951;47.338;9.196;2023-02-28T18:07:22;30.30;;;17.65;;
41219;SDS011;26951;47.338;9.196;2023-02-28T18:10:11;31.23;;;18.23;;
41219;SDS011;26951;47.338;9.196;2023-02-28T18:12:59;25.05;;;15.55;;
41219;SDS011;26951;47.338;9.196;2023-02-28T18:15:43;23.45;;;14.43;;
41219;SDS011;26951;47.338;9.196;2023-02-28T18:18:27;31.95;;;20.33;;
41219;SDS011;26951;47.338;9.196;2023-02-28T18:21:13;26.77;;;16.02;;
41219;SDS011;26951;47.338;9.196;2023-02-28T18:23:58;23.65;;;14.98;;
41219;SDS011;26951;47.338;9.196;2023-02-28T18:26:42;34.08;;;19.25;;
41219;SDS011;26951;47.338;9.196;2023-02-28T18:29:27;24.90;;;16.02;;
41219;SDS011;26951;47.338;9.196;2023-02-28T18:32:12;23.52;;;15.63;;
41219;SDS011;26951;47.338;9.196;2023-02-28T18:34:56;24.95;;;15.85;;
41219;SDS011;26951;47.338;9.196;2023-02-28T18:37:40;27.52;;;16.67;;
41219;SDS011;26951;47.338;9.196;2023-02-28T18:40:25;27.50;;;16.17;;